< < Back
Terminal Aerodrome Forecast


Current Version              Previous Versions:   1  2  3  4  5  6  7  8  9  

Terminal Aerodrome Forecast

724
FTUS42 KCAE 011700
TAFCAE
TAF
KCAE 011720Z 0118/0218 06008G15KT P6SM SKC
     FM020100 VRB04KT P6SM SKC
     FM021400 12005KT P6SM SCT150=



Latest METAR

352
SAUS80 KWBC 020000 RRA
MTRCAE
METAR KCAE 012356Z 10008KT 10SM SCT200 21/06 A3009 RMK AO2 SLP187
T02110061 10250 20211 51016


USA.gov is the U.S. government's official web portal to all federal, state and local government web resources and services.